createdAt,value
2023-01-31T00:02:12.232Z,19.27
2023-01-31T00:05:16.542Z,34.77
2023-01-31T00:08:19.212Z,24.23
2023-01-31T00:11:24.650Z,20.33
2023-01-31T00:14:27.230Z,19.53
2023-01-31T00:17:29.795Z,21.67
2023-01-31T00:20:33.717Z,23.80
2023-01-31T00:23:37.165Z,14.10
2023-01-31T00:26:40.058Z,20.03
2023-01-31T00:29:42.695Z,18.07
2023-01-31T00:32:45.266Z,26.30
2023-01-31T00:35:49.236Z,10.57
2023-01-31T00:38:53.381Z,22.20
2023-01-31T00:41:55.958Z,24.37
2023-01-31T00:44:58.600Z,19.30
2023-01-31T00:48:01.174Z,13.93
2023-01-31T00:51:05.903Z,14.60
2023-01-31T00:54:08.508Z,14.90
2023-01-31T00:57:11.135Z,19.30
2023-01-31T01:00:14.844Z,22.57
2023-01-31T01:03:17.446Z,19.33
2023-01-31T01:06:22.103Z,15.83
2023-01-31T01:09:25.427Z,15.50
2023-01-31T01:12:28.015Z,9.50
2023-01-31T01:15:30.583Z,10.10
2023-01-31T01:18:35.376Z,11.13
2023-01-31T01:21:40.681Z,14.10
2023-01-31T01:24:43.830Z,12.83
2023-01-31T01:27:46.401Z,8.70
2023-01-31T01:30:48.999Z,12.13
2023-01-31T01:33:51.721Z,10.67
2023-01-31T01:36:55.693Z,9.37
2023-01-31T01:39:58.250Z,8.30
2023-01-31T01:43:00.827Z,8.93
2023-01-31T01:46:03.557Z,11.33
2023-01-31T01:49:18.983Z,13.53
2023-01-31T01:52:24.921Z,14.13
2023-01-31T01:55:32.880Z,10.93
2023-01-31T01:58:40.853Z,11.83
2023-01-31T02:01:45.010Z,15.43
2023-01-31T02:04:51.453Z,16.37
2023-01-31T02:07:56.034Z,11.20
2023-01-31T02:11:04.126Z,14.33
2023-01-31T02:14:09.362Z,17.17
2023-01-31T02:17:15.808Z,19.57
2023-01-31T02:20:34.325Z,17.63
2023-01-31T02:24:09.720Z,16.03
2023-01-31T02:27:45.228Z,22.67
2023-01-31T02:31:19.571Z,25.00
2023-01-31T02:34:31.743Z,18.87
2023-01-31T02:37:42.086Z,19.90
2023-01-31T02:40:52.549Z,14.73
2023-01-31T02:44:16.111Z,16.47
2023-01-31T02:47:28.417Z,26.53
2023-01-31T02:50:39.740Z,20.77
2023-01-31T02:53:46.514Z,21.83
2023-01-31T02:56:50.274Z,20.63
2023-01-31T02:59:52.975Z,25.40
2023-01-31T03:02:56.362Z,15.13
2023-01-31T03:06:27.564Z,26.63
2023-01-31T03:09:43.117Z,17.27
2023-01-31T03:12:59.175Z,24.33
2023-01-31T03:16:30.446Z,15.97
2023-01-31T03:19:39.822Z,18.33
2023-01-31T03:22:46.538Z,19.27
2023-01-31T03:25:50.612Z,17.30
2023-01-31T03:28:57.088Z,14.80
2023-01-31T03:32:06.040Z,14.50
2023-01-31T03:35:09.848Z,16.30
2023-01-31T03:38:18.743Z,15.90
2023-01-31T03:41:28.847Z,19.67
2023-01-31T03:44:40.333Z,16.63
2023-01-31T03:47:45.650Z,13.40
2023-01-31T03:50:52.384Z,15.87
2023-01-31T03:54:01.400Z,10.27
2023-01-31T03:57:08.532Z,14.40
2023-01-31T04:00:16.485Z,14.73
2023-01-31T04:03:25.067Z,10.50
2023-01-31T04:06:28.399Z,9.17
2023-01-31T04:09:32.357Z,15.43
2023-01-31T04:12:37.249Z,18.53
2023-01-31T04:15:39.952Z,17.07
2023-01-31T04:18:42.559Z,19.40
2023-01-31T04:21:45.184Z,17.03
2023-01-31T04:24:49.506Z,18.57
2023-01-31T04:27:52.115Z,25.87
2023-01-31T04:30:55.507Z,16.43
2023-01-31T04:33:58.349Z,25.93
2023-01-31T04:37:00.936Z,20.00
2023-01-31T04:40:05.851Z,25.40
2023-01-31T04:43:08.445Z,21.53
2023-01-31T04:46:11.052Z,24.57
2023-01-31T04:49:13.709Z,22.90
2023-01-31T04:52:16.338Z,23.03
2023-01-31T04:55:20.949Z,20.33
2023-01-31T04:58:24.145Z,15.97
2023-01-31T05:01:27.289Z,21.43
2023-01-31T05:04:29.888Z,18.33
2023-01-31T05:07:32.746Z,23.30
2023-01-31T05:10:37.146Z,10.67
2023-01-31T05:13:39.738Z,21.97
2023-01-31T05:16:44.010Z,20.40
2023-01-31T05:19:48.546Z,19.43
2023-01-31T05:22:51.663Z,23.77
2023-01-31T05:25:55.726Z,18.33
2023-01-31T05:29:00.439Z,12.33
2023-01-31T05:32:04.506Z,17.20
2023-01-31T05:35:08.142Z,25.93
2023-01-31T05:38:10.995Z,15.73
2023-01-31T05:41:14.925Z,23.77
2023-01-31T05:44:17.774Z,21.67
2023-01-31T05:47:20.376Z,17.33
2023-01-31T05:50:23.476Z,18.67
2023-01-31T05:53:26.144Z,22.07
2023-01-31T05:56:30.074Z,18.93
2023-01-31T05:59:33.561Z,25.47
2023-01-31T06:02:36.179Z,23.07
2023-01-31T06:05:44.733Z,24.73
2023-01-31T06:08:47.374Z,21.30
2023-01-31T06:11:51.278Z,36.47
2023-01-31T06:15:15.716Z,27.50
2023-01-31T06:18:18.287Z,39.57
2023-01-31T06:21:21.125Z,23.73
2023-01-31T06:24:23.755Z,32.10
2023-01-31T06:27:27.674Z,22.60
2023-01-31T06:30:30.876Z,26.80
2023-01-31T06:33:45.391Z,23.50
2023-01-31T06:36:49.771Z,28.50
2023-01-31T06:39:52.328Z,25.50
2023-01-31T06:42:56.515Z,24.27
2023-01-31T06:45:59.185Z,23.00
2023-01-31T06:49:02.009Z,23.73
2023-01-31T06:52:04.757Z,27.00
2023-01-31T06:55:08.062Z,27.67
2023-01-31T06:58:11.985Z,27.27
2023-01-31T07:01:16.246Z,28.07
2023-01-31T07:04:19.021Z,31.33
2023-01-31T07:07:21.620Z,26.37
2023-01-31T07:10:24.201Z,26.97
2023-01-31T07:13:28.934Z,23.13
2023-01-31T07:16:32.361Z,23.07
2023-01-31T07:19:34.973Z,27.43
2023-01-31T07:22:37.586Z,24.37
2023-01-31T07:25:40.159Z,29.60
2023-01-31T07:28:44.136Z,27.40
2023-01-31T07:31:46.784Z,25.97
2023-01-31T07:34:49.897Z,26.37
2023-01-31T07:37:53.115Z,22.67
2023-01-31T07:40:55.808Z,21.63
2023-01-31T07:44:00.611Z,23.73
2023-01-31T07:47:03.186Z,22.23
2023-01-31T07:50:06.333Z,22.90
2023-01-31T07:53:08.950Z,20.57
2023-01-31T07:56:14.261Z,25.07
2023-01-31T07:59:18.524Z,23.87
2023-01-31T08:02:38.774Z,22.63
2023-01-31T08:05:41.409Z,33.80
2023-01-31T08:08:45.069Z,21.47
2023-01-31T08:11:47.767Z,25.17
2023-01-31T08:14:51.708Z,27.57
2023-01-31T08:17:54.296Z,28.30
2023-01-31T08:20:57.789Z,25.70
2023-01-31T08:24:00.407Z,27.33
2023-01-31T08:27:03.013Z,33.23
2023-01-31T08:30:08.801Z,26.33
2023-01-31T08:33:12.586Z,27.33
2023-01-31T08:36:18.851Z,27.57
2023-01-31T08:39:21.423Z,25.80
2023-01-31T08:42:23.987Z,26.50
2023-01-31T08:45:28.257Z,31.77
2023-01-31T08:48:33.289Z,22.07
2023-01-31T08:51:35.934Z,24.17
2023-01-31T08:54:38.493Z,27.70
2023-01-31T08:57:57.660Z,28.37
2023-01-31T09:01:04.184Z,25.63
2023-01-31T09:04:06.759Z,24.17
2023-01-31T09:07:09.379Z,21.80
2023-01-31T09:10:12.523Z,18.73
2023-01-31T09:13:15.114Z,27.67
2023-01-31T09:16:20.943Z,22.63
2023-01-31T09:19:23.658Z,28.77
2023-01-31T09:22:26.283Z,27.90
2023-01-31T09:25:43.441Z,29.47
2023-01-31T09:28:49.186Z,26.53
2023-01-31T09:31:53.618Z,19.57
2023-01-31T09:34:56.224Z,25.43
2023-01-31T09:37:59.369Z,28.77
2023-01-31T09:41:04.240Z,32.17
2023-01-31T09:44:11.529Z,23.30
2023-01-31T09:47:22.284Z,30.37
2023-01-31T09:50:32.240Z,26.67
2023-01-31T09:53:39.313Z,21.83
2023-01-31T09:56:46.631Z,27.00
2023-01-31T09:59:54.657Z,30.77
2023-01-31T10:03:31.853Z,22.77
2023-01-31T10:06:40.962Z,20.87
2023-01-31T10:09:47.481Z,22.93
2023-01-31T10:12:53.272Z,22.10
2023-01-31T10:15:58.663Z,27.97
2023-01-31T10:19:07.447Z,22.37
2023-01-31T10:22:15.279Z,19.27
2023-01-31T10:25:24.961Z,20.20
2023-01-31T10:28:36.713Z,19.83
2023-01-31T10:31:44.290Z,18.23
2023-01-31T10:34:54.570Z,18.03
2023-01-31T10:38:02.786Z,19.53
2023-01-31T10:41:14.693Z,20.67
2023-01-31T10:44:23.873Z,20.87
2023-01-31T10:47:32.798Z,17.93
2023-01-31T10:50:46.372Z,18.93
2023-01-31T10:54:05.589Z,25.07
2023-01-31T10:57:08.363Z,17.17
2023-01-31T11:00:18.995Z,17.33
2023-01-31T11:03:22.072Z,19.87
2023-01-31T11:06:26.063Z,28.63
2023-01-31T11:09:31.344Z,20.37
2023-01-31T11:12:53.327Z,18.10
2023-01-31T11:15:56.598Z,26.13
2023-01-31T11:19:02.321Z,19.00
2023-01-31T11:22:08.144Z,24.37
2023-01-31T11:25:21.785Z,22.07
2023-01-31T11:28:29.163Z,14.43
2023-01-31T11:31:35.602Z,15.67
2023-01-31T11:34:38.274Z,16.77
2023-01-31T11:37:53.958Z,18.73
2023-01-31T11:40:56.734Z,16.00
2023-01-31T11:44:09.276Z,20.83
2023-01-31T11:47:14.009Z,19.33
2023-01-31T11:50:21.804Z,14.07
2023-01-31T11:53:29.692Z,15.53
2023-01-31T11:56:37.925Z,12.40
2023-01-31T11:59:40.643Z,12.77
2023-01-31T12:02:43.354Z,13.13
2023-01-31T12:05:51.253Z,13.47
2023-01-31T12:08:57.093Z,15.30
2023-01-31T12:12:02.693Z,13.80
2023-01-31T12:15:15.365Z,9.90
2023-01-31T12:18:28.556Z,18.30
2023-01-31T12:21:45.749Z,9.40
2023-01-31T12:25:03.476Z,10.13
2023-01-31T12:28:22.858Z,9.60
2023-01-31T12:31:42.081Z,8.90
2023-01-31T12:35:11.032Z,9.57
2023-01-31T12:38:28.689Z,5.93
2023-01-31T12:41:40.342Z,11.83
2023-01-31T12:44:46.625Z,7.90
2023-01-31T12:48:09.366Z,9.93
2023-01-31T12:51:27.051Z,5.80
2023-01-31T12:54:45.004Z,13.40
2023-01-31T12:57:58.115Z,8.30
2023-01-31T13:01:05.682Z,4.97
2023-01-31T13:04:27.716Z,7.83
2023-01-31T13:07:36.690Z,6.33
2023-01-31T13:10:44.665Z,7.43
2023-01-31T13:13:51.704Z,4.83
2023-01-31T13:17:00.067Z,7.13
2023-01-31T13:20:09.062Z,5.83
2023-01-31T13:23:18.125Z,4.80
2023-01-31T13:26:26.503Z,4.03
2023-01-31T13:29:35.329Z,6.30
2023-01-31T13:32:42.235Z,4.03
2023-01-31T13:35:46.176Z,2.40
2023-01-31T13:38:49.323Z,6.10
2023-01-31T13:41:52.204Z,7.47
2023-01-31T13:44:57.496Z,5.50
2023-01-31T13:48:04.743Z,4.87
2023-01-31T13:51:16.031Z,11.93
2023-01-31T13:54:23.463Z,7.30
2023-01-31T13:57:29.592Z,5.93
2023-01-31T14:00:40.902Z,7.40
2023-01-31T14:04:24.473Z,6.43
2023-01-31T14:07:27.064Z,12.43
2023-01-31T14:10:38.623Z,8.07
2023-01-31T14:13:44.032Z,7.00
2023-01-31T14:16:51.742Z,9.50
2023-01-31T14:20:07.870Z,9.10
2023-01-31T14:23:31.040Z,8.77
2023-01-31T14:26:38.229Z,7.30
2023-01-31T14:29:44.002Z,4.53
2023-01-31T14:32:50.547Z,17.77
2023-01-31T14:36:08.160Z,10.50
2023-01-31T14:39:25.756Z,12.27
2023-01-31T14:42:45.143Z,12.07
2023-01-31T14:46:07.345Z,9.53
2023-01-31T14:49:26.571Z,9.57
2023-01-31T14:52:48.809Z,11.00
2023-01-31T14:56:24.180Z,10.23
2023-01-31T14:59:34.951Z,11.27
2023-01-31T15:02:49.692Z,14.53
2023-01-31T15:05:56.696Z,14.07
2023-01-31T15:09:27.807Z,12.77
2023-01-31T15:12:55.753Z,10.43
2023-01-31T15:15:59.037Z,13.20
2023-01-31T15:19:09.044Z,9.97
2023-01-31T15:22:14.408Z,12.50
2023-01-31T15:25:25.993Z,11.20
2023-01-31T15:28:31.093Z,10.30
2023-01-31T15:31:42.023Z,12.90
2023-01-31T15:34:55.362Z,16.30
2023-01-31T15:38:04.815Z,19.57
2023-01-31T15:41:20.069Z,19.73
2023-01-31T15:44:24.215Z,16.07
2023-01-31T15:47:26.787Z,25.47
2023-01-31T15:50:31.438Z,27.67
2023-01-31T15:53:35.393Z,26.57
2023-01-31T15:56:41.481Z,22.13
2023-01-31T15:59:47.151Z,32.43
2023-01-31T16:02:50.040Z,33.40
2023-01-31T16:05:54.395Z,30.13
2023-01-31T16:09:01.763Z,27.97
2023-01-31T16:12:05.156Z,27.13
2023-01-31T16:15:09.598Z,28.47
2023-01-31T16:18:13.832Z,37.97
2023-01-31T16:21:25.616Z,36.20
2023-01-31T16:24:29.640Z,25.37
2023-01-31T16:27:36.969Z,28.03
2023-01-31T16:30:41.384Z,14.63
2023-01-31T16:33:50.396Z,6.03
2023-01-31T16:36:57.504Z,10.10
2023-01-31T16:40:05.947Z,16.37
2023-01-31T16:43:19.768Z,10.30
2023-01-31T16:46:38.643Z,14.17
2023-01-31T16:49:41.383Z,14.50
2023-01-31T16:52:45.035Z,12.30
2023-01-31T16:56:23.098Z,16.70
2023-01-31T16:59:48.399Z,13.63
2023-01-31T17:02:53.321Z,14.77
2023-01-31T17:05:55.984Z,20.63
2023-01-31T17:08:59.166Z,19.47
2023-01-31T17:12:03.565Z,12.57
2023-01-31T17:15:14.876Z,31.17
2023-01-31T17:18:17.983Z,20.40
2023-01-31T17:21:22.341Z,29.53
2023-01-31T17:24:24.918Z,23.63
2023-01-31T17:27:28.828Z,33.80
2023-01-31T17:30:31.800Z,38.43
2023-01-31T17:33:34.449Z,29.83
2023-01-31T17:36:37.020Z,26.87
2023-01-31T17:39:39.737Z,29.77
2023-01-31T17:42:43.738Z,32.97
2023-01-31T17:45:46.332Z,28.27
2023-01-31T17:48:48.906Z,25.90
2023-01-31T17:51:51.542Z,33.67
2023-01-31T17:54:54.146Z,31.37
2023-01-31T17:57:58.077Z,39.30
2023-01-31T18:01:00.690Z,33.07
2023-01-31T18:04:04.515Z,27.80
2023-01-31T18:07:07.136Z,38.23
2023-01-31T18:10:11.117Z,33.20
2023-01-31T18:13:15.043Z,31.57
2023-01-31T18:16:20.733Z,30.00
2023-01-31T18:19:23.669Z,36.90
2023-01-31T18:22:26.689Z,32.67
2023-01-31T18:25:30.644Z,32.20
2023-01-31T18:28:35.047Z,39.43
2023-01-31T18:31:37.658Z,42.80
2023-01-31T18:34:40.317Z,30.60
2023-01-31T18:37:42.944Z,43.00
2023-01-31T18:40:45.526Z,45.27
2023-01-31T18:43:50.154Z,40.73
2023-01-31T18:46:52.768Z,36.33
2023-01-31T18:49:55.359Z,42.27
2023-01-31T18:52:58.031Z,33.07
2023-01-31T18:56:03.495Z,46.83
2023-01-31T18:59:08.620Z,33.43
2023-01-31T19:02:12.071Z,39.93
2023-01-31T19:05:14.810Z,47.60
2023-01-31T19:08:17.499Z,43.47
2023-01-31T19:11:23.335Z,32.63
2023-01-31T19:14:27.370Z,38.23
2023-01-31T19:17:30.040Z,49.37
2023-01-31T19:20:32.740Z,34.53
2023-01-31T19:23:37.667Z,37.00
2023-01-31T19:26:41.046Z,37.00
2023-01-31T19:29:45.100Z,33.07
2023-01-31T19:32:47.775Z,34.97
2023-01-31T19:35:50.408Z,33.20
2023-01-31T19:38:53.322Z,32.13
2023-01-31T19:41:55.995Z,34.80
2023-01-31T19:45:00.105Z,40.33
2023-01-31T19:48:02.869Z,32.47
2023-01-31T19:51:10.001Z,35.67
2023-01-31T19:54:15.118Z,38.73
2023-01-31T19:57:17.801Z,35.50
2023-01-31T20:00:22.119Z,40.77
2023-01-31T20:03:24.899Z,48.40
2023-01-31T20:06:29.656Z,38.17
2023-01-31T20:09:32.337Z,39.87
2023-01-31T20:12:35.056Z,32.70
2023-01-31T20:15:39.188Z,35.53
2023-01-31T20:18:42.467Z,36.30
2023-01-31T20:21:45.559Z,28.37
2023-01-31T20:24:48.273Z,24.20
2023-01-31T20:27:51.003Z,31.07
2023-01-31T20:30:55.646Z,46.23
2023-01-31T20:33:58.315Z,27.80
2023-01-31T20:37:01.024Z,37.10
2023-01-31T20:40:03.711Z,33.90
2023-01-31T20:43:07.475Z,33.47
2023-01-31T20:46:14.377Z,42.73
2023-01-31T20:49:17.145Z,43.70
2023-01-31T20:52:21.359Z,39.70
2023-01-31T20:55:24.879Z,34.63
2023-01-31T20:58:28.770Z,42.17
2023-01-31T21:01:32.917Z,29.73
2023-01-31T21:04:35.645Z,47.20
2023-01-31T21:07:38.335Z,37.23
2023-01-31T21:10:41.667Z,35.73
2023-01-31T21:13:44.378Z,41.63
2023-01-31T21:16:49.105Z,31.37
2023-01-31T21:19:51.765Z,36.90
2023-01-31T21:22:54.455Z,22.17
2023-01-31T21:26:01.664Z,35.93
2023-01-31T21:29:04.436Z,36.37
2023-01-31T21:32:08.511Z,33.33
2023-01-31T21:35:11.230Z,41.33
2023-01-31T21:38:13.925Z,37.50
2023-01-31T21:41:34.047Z,36.50
2023-01-31T21:44:36.778Z,31.13
2023-01-31T21:47:54.700Z,36.60
2023-01-31T21:50:58.721Z,43.27
2023-01-31T21:54:01.427Z,30.10
2023-01-31T21:57:04.303Z,33.87
2023-01-31T22:00:08.624Z,32.77
2023-01-31T22:03:12.647Z,31.43
2023-01-31T22:06:17.358Z,32.27
2023-01-31T22:09:20.245Z,31.90
2023-01-31T22:12:22.882Z,38.07
2023-01-31T22:15:25.593Z,28.50
2023-01-31T22:18:30.311Z,31.90
2023-01-31T22:21:34.653Z,34.17
2023-01-31T22:24:37.347Z,33.60
2023-01-31T22:27:40.042Z,32.83
2023-01-31T22:30:42.733Z,31.97
2023-01-31T22:33:46.846Z,33.47
2023-01-31T22:36:49.520Z,38.50
2023-01-31T22:39:52.197Z,39.27
2023-01-31T22:42:54.857Z,24.73
2023-01-31T22:46:00.347Z,35.30
2023-01-31T22:49:04.459Z,26.20
2023-01-31T22:52:07.132Z,35.73
2023-01-31T22:55:10.592Z,36.03
2023-01-31T22:58:15.071Z,35.67
2023-01-31T23:01:19.569Z,24.07
2023-01-31T23:04:23.650Z,39.00
2023-01-31T23:07:26.545Z,38.00
2023-01-31T23:10:29.250Z,28.90
2023-01-31T23:13:32.138Z,26.93
2023-01-31T23:16:51.630Z,34.00
2023-01-31T23:19:55.711Z,33.97
2023-01-31T23:22:59.450Z,28.73
2023-01-31T23:26:02.327Z,32.73
2023-01-31T23:29:05.019Z,35.37
2023-01-31T23:32:07.774Z,26.90
2023-01-31T23:35:12.324Z,26.50
2023-01-31T23:38:15.188Z,25.63
2023-01-31T23:41:17.949Z,32.77
2023-01-31T23:44:20.608Z,32.53
2023-01-31T23:47:23.328Z,41.97
2023-01-31T23:50:27.524Z,29.90
2023-01-31T23:53:30.181Z,33.40
2023-01-31T23:56:32.930Z,21.30
2023-01-31T23:59:35.765Z,24.13
